createdAt,value
2022-08-07T00:00:25.625Z,99.90
2022-08-07T00:02:53.824Z,99.90
2022-08-07T00:05:21.268Z,99.90
2022-08-07T00:07:59.821Z,99.90
2022-08-07T00:10:31.107Z,99.90
2022-08-07T00:13:02.204Z,99.90
2022-08-07T00:15:38.028Z,99.90
2022-08-07T00:18:20.200Z,99.90
2022-08-07T00:20:51.544Z,99.90
2022-08-07T00:23:21.404Z,99.90
2022-08-07T00:25:52.436Z,99.90
2022-08-07T00:28:33.712Z,99.90
2022-08-07T00:31:04.560Z,99.90
2022-08-07T00:33:34.387Z,99.90
2022-08-07T00:36:01.422Z,99.90
2022-08-07T00:38:31.781Z,99.90
2022-08-07T00:41:00.624Z,99.90
2022-08-07T00:43:59.801Z,99.90
2022-08-07T00:46:14.517Z,99.90
2022-08-07T00:48:42.265Z,99.90
2022-08-07T00:51:10.393Z,99.90
2022-08-07T00:53:39.262Z,99.90
2022-08-07T00:56:18.417Z,99.90
2022-08-07T00:58:47.495Z,99.90
2022-08-07T01:01:17.665Z,99.90
2022-08-07T01:03:55.766Z,99.90
2022-08-07T01:06:28.434Z,99.90
2022-08-07T01:08:58.417Z,99.90
2022-08-07T01:12:23.356Z,99.90
2022-08-07T01:14:16.580Z,99.90
2022-08-07T01:16:47.226Z,99.90
2022-08-07T01:19:19.000Z,99.90
2022-08-07T01:21:53.072Z,99.90
2022-08-07T01:24:22.248Z,99.90
2022-08-07T01:26:51.863Z,99.90
2022-08-07T01:29:20.489Z,99.90
2022-08-07T01:31:49.499Z,99.90
2022-08-07T01:34:18.792Z,99.90
2022-08-07T01:36:52.760Z,99.90
2022-08-07T01:39:40.591Z,99.90
2022-08-07T01:42:38.373Z,99.90
2022-08-07T01:44:55.537Z,99.90
2022-08-07T01:48:18.926Z,99.90
2022-08-07T01:50:09.737Z,99.90
2022-08-07T01:52:39.362Z,99.90
2022-08-07T01:55:22.191Z,99.90
2022-08-07T01:58:06.743Z,99.90
2022-08-07T02:00:45.339Z,99.90
2022-08-07T02:03:26.258Z,99.90
2022-08-07T02:06:02.491Z,99.90
2022-08-07T02:08:41.026Z,99.90
2022-08-07T02:11:11.037Z,99.90
2022-08-07T02:14:02.369Z,99.90
2022-08-07T02:16:33.363Z,99.90
2022-08-07T02:19:05.523Z,99.90
2022-08-07T02:21:55.820Z,99.90
2022-08-07T02:24:24.802Z,99.90
2022-08-07T02:26:52.705Z,99.90
2022-08-07T02:29:21.889Z,99.90
2022-08-07T02:31:50.507Z,99.90
2022-08-07T02:34:18.972Z,99.90
2022-08-07T02:36:46.069Z,99.90
2022-08-07T02:39:17.483Z,99.90
2022-08-07T02:42:02.333Z,99.90
2022-08-07T02:44:34.779Z,99.90
2022-08-07T02:47:05.034Z,99.90
2022-08-07T02:49:58.806Z,99.90
2022-08-07T02:52:32.018Z,99.90
2022-08-07T02:55:03.771Z,99.90
2022-08-07T02:57:34.980Z,99.90
2022-08-07T03:00:04.923Z,99.90
2022-08-07T03:02:33.757Z,99.90
2022-08-07T03:05:05.189Z,99.90
2022-08-07T03:08:04.712Z,99.90
2022-08-07T03:10:23.454Z,99.90
2022-08-07T03:12:51.907Z,99.90
2022-08-07T03:15:30.385Z,99.90
2022-08-07T03:18:06.604Z,99.90
2022-08-07T03:20:34.209Z,99.90
2022-08-07T03:23:03.048Z,99.90
2022-08-07T03:25:40.084Z,99.90
2022-08-07T03:28:37.353Z,99.90
2022-08-07T03:31:18.029Z,99.90
2022-08-07T03:33:48.593Z,99.90
2022-08-07T03:36:19.102Z,99.90
2022-08-07T03:38:47.804Z,99.90
2022-08-07T03:41:16.065Z,99.90
2022-08-07T03:43:43.998Z,99.90
2022-08-07T03:46:24.521Z,99.90
2022-08-07T03:49:03.005Z,99.90
2022-08-07T03:51:47.493Z,99.90
2022-08-07T03:54:36.436Z,99.90
2022-08-07T03:57:07.418Z,99.90
2022-08-07T03:59:34.663Z,99.90
2022-08-07T04:02:02.114Z,99.90
2022-08-07T04:04:29.149Z,99.90
2022-08-07T04:07:00.184Z,99.90
2022-08-07T04:09:44.506Z,99.90
2022-08-07T04:12:27.948Z,99.90
2022-08-07T04:14:58.191Z,99.90
2022-08-07T04:18:30.934Z,99.90
2022-08-07T04:20:14.588Z,99.90
2022-08-07T04:22:53.519Z,99.90
2022-08-07T04:25:23.543Z,99.90
2022-08-07T04:27:59.047Z,99.90
2022-08-07T04:30:43.691Z,99.90
2022-08-07T04:33:15.710Z,99.90
2022-08-07T04:35:50.463Z,99.90
2022-08-07T04:38:18.761Z,99.90
2022-08-07T04:40:51.954Z,99.90
2022-08-07T04:43:53.565Z,99.90
2022-08-07T04:46:34.806Z,99.90
2022-08-07T04:49:38.779Z,99.90
2022-08-07T04:52:09.100Z,99.90
2022-08-07T04:54:50.564Z,99.90
2022-08-07T04:58:12.485Z,99.90
2022-08-07T05:00:37.826Z,99.90
2022-08-07T05:04:00.334Z,99.90
2022-08-07T05:06:29.080Z,99.90
2022-08-07T05:09:42.924Z,99.90
2022-08-07T05:12:15.561Z,99.90
2022-08-07T05:15:04.459Z,99.90
2022-08-07T05:17:52.290Z,99.90
2022-08-07T05:20:26.791Z,99.90
2022-08-07T05:22:59.615Z,99.90
2022-08-07T05:25:54.424Z,99.90
2022-08-07T05:28:23.034Z,99.90
2022-08-07T05:30:55.421Z,99.90
2022-08-07T05:33:23.832Z,99.90
2022-08-07T05:35:53.544Z,99.90
2022-08-07T05:39:01.457Z,99.90
2022-08-07T05:41:14.054Z,99.90
2022-08-07T05:44:08.381Z,99.90
2022-08-07T05:46:34.935Z,99.90
2022-08-07T05:49:11.606Z,99.90
2022-08-07T05:51:43.589Z,99.90
2022-08-07T05:54:30.971Z,99.90
2022-08-07T05:56:59.075Z,99.90
2022-08-07T05:59:27.500Z,99.90
2022-08-07T06:01:58.180Z,99.90
2022-08-07T06:04:29.941Z,99.90
2022-08-07T06:07:03.672Z,99.90
2022-08-07T06:10:04.244Z,99.90
2022-08-07T06:12:31.903Z,99.90
2022-08-07T06:15:05.352Z,99.90
2022-08-07T06:17:38.031Z,99.90
2022-08-07T06:20:12.261Z,99.90
2022-08-07T06:22:42.132Z,99.90
2022-08-07T06:25:34.766Z,99.90
2022-08-07T06:28:10.489Z,99.90
2022-08-07T06:30:45.899Z,99.90
2022-08-07T06:33:16.151Z,20.90
2022-08-07T06:35:47.731Z,99.90
2022-08-07T06:38:30.845Z,99.90
2022-08-07T06:41:00.377Z,91.60
2022-08-07T06:43:39.251Z,3.80
2022-08-07T06:46:12.389Z,99.90
2022-08-07T06:48:41.964Z,99.90
2022-08-07T06:51:31.106Z,82.40
2022-08-07T06:55:28.865Z,99.90
2022-08-07T06:56:55.331Z,1.00
2022-08-07T07:00:14.716Z,99.90
2022-08-07T07:02:48.144Z,99.90
2022-08-07T07:05:08.548Z,99.90
2022-08-07T07:07:59.963Z,1.00
2022-08-07T07:10:33.459Z,22.10
2022-08-07T07:13:55.669Z,1.00
2022-08-07T07:16:20.278Z,99.90
2022-08-07T07:18:59.465Z,99.90
2022-08-07T07:21:40.414Z,99.90
2022-08-07T07:24:17.546Z,99.90
2022-08-07T07:26:51.747Z,99.90
2022-08-07T07:29:38.674Z,15.80
2022-08-07T07:32:14.464Z,1.00
2022-08-07T07:34:46.617Z,1.00
2022-08-07T07:37:45.230Z,99.90
2022-08-07T07:40:14.535Z,99.90
2022-08-07T07:42:47.227Z,99.90
2022-08-07T07:45:24.569Z,99.90
2022-08-07T07:48:11.219Z,99.90
2022-08-07T07:50:40.191Z,99.90
2022-08-07T07:53:13.723Z,99.90
2022-08-07T07:55:57.963Z,99.90
2022-08-07T07:58:37.093Z,99.90
2022-08-07T08:02:02.085Z,99.90
2022-08-07T08:04:10.573Z,99.90
2022-08-07T08:06:50.980Z,99.90
2022-08-07T08:09:24.144Z,99.90
2022-08-07T08:12:02.335Z,99.90
2022-08-07T08:14:36.249Z,80.40
2022-08-07T08:17:56.059Z,98.90
2022-08-07T08:20:18.464Z,86.90
2022-08-07T08:23:08.461Z,48.50
2022-08-07T08:26:04.583Z,31.00
2022-08-07T08:28:38.474Z,24.00
2022-08-07T08:31:16.085Z,38.00
2022-08-07T08:33:55.481Z,92.00
2022-08-07T08:36:30.333Z,41.30
2022-08-07T08:39:01.884Z,12.40
2022-08-07T08:41:57.850Z,1.00
2022-08-07T08:44:41.162Z,1.00
2022-08-07T08:47:34.438Z,1.00
2022-08-07T08:50:40.021Z,1.00
2022-08-07T08:53:35.732Z,1.00
2022-08-07T08:56:12.110Z,1.00
2022-08-07T08:59:06.651Z,1.00
2022-08-07T09:02:13.283Z,1.00
2022-08-07T09:05:06.432Z,1.00
2022-08-07T09:07:46.173Z,1.00
2022-08-07T09:10:19.102Z,1.00
2022-08-07T09:12:53.716Z,1.00
2022-08-07T09:16:23.065Z,99.90
2022-08-07T09:19:44.774Z,99.90
2022-08-07T09:24:55.046Z,99.90
2022-08-07T09:26:08.992Z,99.90
2022-08-07T09:30:02.337Z,99.90
2022-08-07T09:31:50.116Z,99.90
2022-08-07T09:34:26.169Z,99.90
2022-08-07T09:37:01.745Z,99.90
2022-08-07T09:39:54.627Z,99.90
2022-08-07T09:42:40.995Z,99.90
2022-08-07T09:47:25.421Z,99.90
2022-08-07T09:50:01.016Z,99.90
2022-08-07T09:52:09.661Z,99.90
2022-08-07T09:54:45.198Z,99.90
2022-08-07T09:57:15.642Z,99.90
2022-08-07T10:00:02.460Z,99.90
2022-08-07T10:03:08.554Z,99.90
2022-08-07T10:06:17.388Z,99.90
2022-08-07T10:09:34.250Z,99.90
2022-08-07T10:12:21.863Z,99.90
2022-08-07T10:15:15.078Z,99.90
2022-08-07T10:18:09.526Z,99.90
2022-08-07T10:20:53.532Z,99.90
2022-08-07T10:24:05.379Z,99.90
2022-08-07T10:26:53.543Z,99.90
2022-08-07T10:29:45.795Z,99.90
2022-08-07T10:32:53.379Z,99.90
2022-08-07T10:36:13.568Z,99.90
2022-08-07T10:38:54.821Z,99.90
2022-08-07T10:41:51.894Z,99.90
2022-08-07T10:44:45.884Z,99.90
2022-08-07T10:47:52.813Z,99.90
2022-08-07T10:50:49.868Z,99.90
2022-08-07T10:53:45.570Z,99.90
2022-08-07T10:56:31.125Z,99.90
2022-08-07T10:59:15.841Z,99.90
2022-08-07T11:02:11.959Z,99.90
2022-08-07T11:05:10.225Z,99.90
2022-08-07T11:08:02.887Z,99.90
2022-08-07T11:10:39.382Z,99.90
2022-08-07T11:14:45.667Z,99.90
2022-08-07T11:16:36.989Z,99.90
2022-08-07T11:19:21.432Z,99.90
2022-08-07T11:22:45.514Z,99.90
2022-08-07T11:25:24.982Z,99.90
2022-08-07T11:28:06.528Z,99.90
2022-08-07T11:31:08.775Z,99.90
2022-08-07T11:34:28.094Z,99.90
2022-08-07T11:37:19.142Z,99.90
2022-08-07T11:40:05.108Z,99.90
2022-08-07T11:42:59.105Z,99.90
2022-08-07T11:46:16.965Z,99.90
2022-08-07T11:49:04.380Z,99.90
2022-08-07T11:51:56.204Z,99.90
2022-08-07T11:54:55.099Z,99.90
2022-08-07T11:57:59.575Z,99.90
2022-08-07T12:00:20.242Z,99.90
2022-08-07T12:03:06.121Z,99.90
2022-08-07T12:05:48.886Z,99.90
2022-08-07T12:08:25.745Z,99.90
2022-08-07T12:11:24.443Z,99.90
2022-08-07T12:14:09.706Z,99.90
2022-08-07T12:16:44.761Z,99.90
2022-08-07T12:19:35.998Z,99.90
2022-08-07T12:22:56.485Z,99.90
2022-08-07T12:26:03.107Z,99.90
2022-08-07T12:28:45.200Z,99.90
2022-08-07T12:31:53.096Z,99.90
2022-08-07T12:34:26.678Z,99.90
2022-08-07T12:36:56.419Z,99.90
2022-08-07T12:39:43.724Z,99.90
2022-08-07T12:42:13.502Z,99.90
2022-08-07T12:44:44.911Z,99.90
2022-08-07T12:47:26.768Z,99.90
2022-08-07T12:50:39.346Z,99.90
2022-08-07T12:53:18.915Z,99.90
2022-08-07T12:56:03.660Z,99.90
2022-08-07T12:58:39.618Z,99.90
2022-08-07T13:01:27.965Z,99.90
2022-08-07T13:04:05.523Z,99.90
2022-08-07T13:07:09.165Z,99.90
2022-08-07T13:10:37.772Z,99.90
2022-08-07T13:13:46.834Z,99.90
2022-08-07T13:16:25.735Z,99.90
2022-08-07T13:19:21.866Z,99.90
2022-08-07T13:22:19.801Z,99.90
2022-08-07T13:25:10.478Z,99.90
2022-08-07T13:28:10.828Z,99.90
2022-08-07T13:30:48.982Z,99.90
2022-08-07T13:34:33.313Z,99.90
2022-08-07T13:36:26.089Z,99.90
2022-08-07T13:39:28.377Z,99.90
2022-08-07T13:42:03.119Z,99.90
2022-08-07T13:44:37.257Z,99.90
2022-08-07T13:47:09.391Z,99.90
2022-08-07T13:50:35.436Z,99.90
2022-08-07T13:52:41.424Z,99.90
2022-08-07T13:55:19.181Z,99.90
2022-08-07T13:57:59.256Z,99.90
2022-08-07T14:00:50.532Z,99.90
2022-08-07T14:03:30.109Z,99.90
2022-08-07T14:06:14.225Z,99.90
2022-08-07T14:08:48.765Z,99.90
2022-08-07T14:11:23.435Z,99.90
2022-08-07T14:13:57.921Z,99.90
2022-08-07T14:16:31.685Z,99.90
2022-08-07T14:19:03.121Z,99.90
2022-08-07T14:22:02.345Z,99.90
2022-08-07T14:24:29.422Z,99.90
2022-08-07T14:27:16.242Z,99.90
2022-08-07T14:30:09.382Z,99.90
2022-08-07T14:32:59.673Z,99.90
2022-08-07T14:35:43.037Z,99.90
2022-08-07T14:41:14.708Z,99.90
2022-08-07T14:43:59.292Z,99.90
2022-08-07T14:46:33.414Z,99.90
2022-08-07T14:49:56.171Z,99.90
2022-08-07T14:52:05.006Z,99.90
2022-08-07T14:57:54.397Z,99.90
2022-08-07T15:00:29.907Z,99.90
2022-08-07T15:02:59.307Z,99.90
2022-08-07T15:05:30.365Z,99.90
2022-08-07T15:07:58.989Z,99.90
2022-08-07T15:10:29.970Z,99.90
2022-08-07T15:13:25.429Z,99.90
2022-08-07T15:18:56.309Z,99.90
2022-08-07T15:21:58.659Z,99.90
2022-08-07T15:27:23.086Z,99.90
2022-08-07T15:30:09.145Z,99.90
2022-08-07T15:36:02.024Z,99.90
2022-08-07T15:38:32.952Z,99.90
2022-08-07T15:41:23.357Z,99.90
2022-08-07T15:44:01.298Z,99.90
2022-08-07T15:46:31.784Z,99.90
2022-08-07T15:49:14.259Z,99.90
2022-08-07T15:54:27.324Z,99.90
2022-08-07T15:56:59.863Z,99.90
2022-08-07T15:59:39.736Z,99.90
2022-08-07T16:02:15.050Z,99.90
2022-08-07T16:04:43.989Z,99.90
2022-08-07T16:08:33.456Z,99.90
2022-08-07T16:10:14.742Z,99.90
2022-08-07T16:13:39.541Z,99.90
2022-08-07T16:16:49.561Z,99.90
2022-08-07T16:19:19.627Z,99.90
2022-08-07T16:22:33.399Z,99.90
2022-08-07T16:25:23.063Z,99.90
2022-08-07T16:30:07.884Z,99.90
2022-08-07T16:31:13.189Z,99.90
2022-08-07T16:34:23.608Z,99.90
2022-08-07T16:38:04.443Z,99.90
2022-08-07T16:40:23.410Z,99.90
2022-08-07T16:43:24.084Z,99.90
2022-08-07T16:47:08.827Z,99.90
2022-08-07T16:50:20.720Z,99.90
2022-08-07T16:54:01.412Z,99.90
2022-08-07T16:56:18.708Z,99.90
2022-08-07T16:59:11.451Z,99.90
2022-08-07T17:02:05.569Z,99.90
2022-08-07T17:05:05.661Z,99.90
2022-08-07T17:07:51.535Z,99.90
2022-08-07T17:10:54.796Z,99.90
2022-08-07T17:14:19.124Z,99.90
2022-08-07T17:16:55.812Z,99.90
2022-08-07T17:20:02.654Z,99.90
2022-08-07T17:22:48.850Z,99.90
2022-08-07T17:25:20.497Z,99.90
2022-08-07T17:28:19.656Z,99.90
2022-08-07T17:31:16.619Z,99.90
2022-08-07T17:34:18.227Z,99.90
2022-08-07T17:37:09.206Z,99.90
2022-08-07T17:39:57.768Z,99.90
2022-08-07T17:42:59.814Z,99.90
2022-08-07T17:45:40.412Z,99.90
2022-08-07T17:48:30.447Z,99.90
2022-08-07T17:51:01.770Z,99.90
2022-08-07T17:54:00.408Z,99.90
2022-08-07T17:56:33.274Z,99.90
2022-08-07T17:59:03.831Z,99.90
2022-08-07T18:01:50.721Z,99.90
2022-08-07T18:04:44.840Z,99.90
2022-08-07T18:07:24.020Z,1.00
2022-08-07T18:10:05.675Z,1.00
2022-08-07T18:12:54.583Z,1.00
2022-08-07T18:15:23.437Z,1.00
2022-08-07T18:18:47.013Z,1.00
2022-08-07T18:21:37.336Z,1.00
2022-08-07T18:24:12.226Z,1.00
2022-08-07T18:27:07.654Z,1.00
2022-08-07T18:30:06.900Z,1.00
2022-08-07T18:33:10.839Z,2.60
2022-08-07T18:35:55.800Z,10.30
2022-08-07T18:38:55.357Z,13.90
2022-08-07T18:41:45.804Z,17.60
2022-08-07T18:44:45.990Z,21.70
2022-08-07T18:48:02.894Z,28.70
2022-08-07T18:50:46.682Z,38.10
2022-08-07T18:53:43.728Z,47.40
2022-08-07T18:57:06.164Z,56.50
2022-08-07T18:59:58.714Z,80.70
2022-08-07T19:02:45.057Z,92.80
2022-08-07T19:06:03.753Z,96.00
2022-08-07T19:08:33.620Z,99.90
2022-08-07T19:11:37.362Z,99.90
2022-08-07T19:14:11.549Z,99.90
2022-08-07T19:17:09.375Z,99.90
2022-08-07T19:20:29.294Z,99.90
2022-08-07T19:23:18.803Z,99.90
2022-08-07T19:26:23.696Z,99.90
2022-08-07T19:30:56.495Z,99.90
2022-08-07T19:31:58.540Z,99.90
2022-08-07T19:34:33.740Z,99.90
2022-08-07T19:37:10.009Z,99.90
2022-08-07T19:39:56.332Z,99.90
2022-08-07T19:42:40.501Z,99.90
2022-08-07T19:46:04.816Z,1.00
2022-08-07T19:48:18.785Z,15.10
2022-08-07T19:50:53.103Z,99.90
2022-08-07T19:54:31.422Z,99.90
2022-08-07T19:58:01.693Z,99.90
2022-08-07T19:59:00.379Z,99.90
2022-08-07T20:01:52.143Z,99.90
2022-08-07T20:04:31.456Z,99.90
2022-08-07T20:07:10.236Z,1.00
2022-08-07T20:10:35.891Z,37.80
2022-08-07T20:12:38.032Z,21.70
2022-08-07T20:15:19.046Z,64.50
2022-08-07T20:18:01.263Z,99.90
2022-08-07T20:20:32.689Z,99.90
2022-08-07T20:23:10.805Z,99.90
2022-08-07T20:25:53.135Z,99.90
2022-08-07T20:28:29.684Z,99.90
2022-08-07T20:30:57.199Z,99.90
2022-08-07T20:33:36.613Z,79.40
2022-08-07T20:36:07.962Z,99.90
2022-08-07T20:38:59.908Z,99.90
2022-08-07T20:41:34.284Z,99.90
2022-08-07T20:44:10.254Z,99.90
2022-08-07T20:46:43.891Z,99.90
2022-08-07T20:49:59.872Z,99.90
2022-08-07T20:52:14.281Z,1.00
2022-08-07T20:54:53.747Z,99.90
2022-08-07T20:57:24.904Z,1.00
2022-08-07T21:00:06.763Z,1.00
2022-08-07T21:02:59.234Z,1.00
2022-08-07T21:05:54.796Z,52.80
2022-08-07T21:09:01.069Z,99.90
2022-08-07T21:11:40.109Z,97.90
2022-08-07T21:14:33.318Z,99.90
2022-08-07T21:18:03.779Z,13.50
2022-08-07T21:20:09.910Z,99.90
2022-08-07T21:22:53.556Z,99.90
2022-08-07T21:25:38.977Z,99.90
2022-08-07T21:28:13.497Z,94.60
2022-08-07T21:31:12.485Z,99.90
2022-08-07T21:34:02.183Z,99.90
2022-08-07T21:36:40.059Z,1.00
2022-08-07T21:39:47.529Z,3.30
2022-08-07T21:42:49.303Z,21.60
2022-08-07T21:46:08.335Z,99.90
2022-08-07T21:48:56.743Z,99.90
2022-08-07T21:51:51.070Z,99.90
2022-08-07T21:54:33.775Z,99.90
2022-08-07T21:57:40.038Z,99.90
2022-08-07T22:00:19.181Z,99.90
2022-08-07T22:03:31.103Z,99.90
2022-08-07T22:06:07.885Z,99.90
2022-08-07T22:09:07.949Z,1.00
2022-08-07T22:12:05.850Z,12.10
2022-08-07T22:14:44.032Z,51.50
2022-08-07T22:17:36.114Z,99.90
2022-08-07T22:20:23.511Z,99.90
2022-08-07T22:22:58.953Z,99.90
2022-08-07T22:25:37.017Z,99.90
2022-08-07T22:28:32.198Z,99.90
2022-08-07T22:31:05.221Z,99.90
2022-08-07T22:33:55.949Z,99.90
2022-08-07T22:36:58.541Z,99.90
2022-08-07T22:39:53.452Z,99.90
2022-08-07T22:42:54.141Z,1.00
2022-08-07T22:46:40.483Z,1.40
2022-08-07T22:48:31.425Z,99.90
2022-08-07T22:51:18.540Z,99.90
2022-08-07T22:54:49.165Z,99.90
2022-08-07T22:57:40.853Z,99.90
2022-08-07T23:00:28.684Z,99.90
2022-08-07T23:02:55.899Z,99.30
2022-08-07T23:06:10.262Z,75.10
2022-08-07T23:08:30.245Z,99.90
2022-08-07T23:11:12.833Z,99.90
2022-08-07T23:14:10.516Z,99.90
2022-08-07T23:17:03.705Z,99.90
2022-08-07T23:19:57.982Z,99.90
2022-08-07T23:22:32.604Z,99.90
2022-08-07T23:25:30.163Z,20.10
2022-08-07T23:28:21.443Z,99.90
2022-08-07T23:31:18.665Z,99.90
2022-08-07T23:34:38.183Z,1.00
2022-08-07T23:38:00.463Z,99.90
2022-08-07T23:40:28.534Z,99.90
2022-08-07T23:43:04.237Z,39.40
2022-08-07T23:46:11.159Z,99.90
2022-08-07T23:49:07.853Z,99.90
2022-08-07T23:52:57.160Z,99.90
2022-08-07T23:55:02.162Z,99.90
2022-08-07T23:57:40.855Z,99.90
